Terminal Aerodrome Forecast
Issued by NWS Indianapolis, IN

Home | Current Version | Previous Version | Text Only | Print | Product List | Glossary On
Versions: 1 2 3 4 5 6 7 8 9 10 11 12 13 14 15 16 17 18 19 20 21 22 23 24 25 26 27 28 29 30 31 32 33
000
FTUS43 KIND 251700
TAFIND
TAF
KIND 251721Z 2518/2624 10007KT 5SM -SHRA OVC040
     FM252100 12007KT 3SM -SHRA OVC010
     FM252300 06009KT 2SM -RASN OVC006
     FM260000 04015G26KT 3SM -SN OVC005
     FM260800 02012G22KT P6SM OVC010
     FM261200 01009KT P6SM OVC040=

USA.gov is the U.S. government's official web portal to all federal, state and local government web resources and services.